createdAt,value
2022-12-17T00:00:14.545Z,0.56
2022-12-17T00:02:59.879Z,0.49
2022-12-17T00:05:45.265Z,0.46
2022-12-17T00:08:30.635Z,0.55
2022-12-17T00:11:17.243Z,0.55
2022-12-17T00:14:02.922Z,0.41
2022-12-17T00:16:47.962Z,0.40
2022-12-17T00:19:33.407Z,0.41
2022-12-17T00:22:18.551Z,0.42
2022-12-17T00:25:04.041Z,0.28
2022-12-17T00:27:49.318Z,0.34
2022-12-17T00:30:34.527Z,0.37
2022-12-17T00:33:19.491Z,0.21
2022-12-17T00:36:12.511Z,0.37
2022-12-17T00:38:58.131Z,0.32
2022-12-17T00:41:43.599Z,0.24
2022-12-17T00:44:28.937Z,0.19
2022-12-17T00:47:14.510Z,0.14
2022-12-17T00:49:59.808Z,0.16
2022-12-17T00:52:44.833Z,0.18
2022-12-17T00:55:30.055Z,0.12
2022-12-17T00:58:16.349Z,0.25
2022-12-17T01:01:01.700Z,0.21
2022-12-17T01:03:47.198Z,0.13
2022-12-17T01:06:32.544Z,0.11
2022-12-17T01:09:17.871Z,0.09
2022-12-17T01:12:03.053Z,0.10
2022-12-17T01:14:48.434Z,0.04
2022-12-17T01:17:33.925Z,-0.03
2022-12-17T01:20:19.124Z,0.03
2022-12-17T01:23:04.806Z,-0.03
2022-12-17T01:25:50.195Z,-0.01
2022-12-17T01:28:41.128Z,-0.08
2022-12-17T01:31:31.470Z,-0.09
2022-12-17T01:34:20.000Z,-0.13
2022-12-17T01:37:05.184Z,0.01
2022-12-17T01:39:50.039Z,-0.11
2022-12-17T01:42:35.568Z,-0.14
2022-12-17T01:45:22.421Z,-0.05
2022-12-17T01:48:23.657Z,-0.06
2022-12-17T01:51:13.556Z,-0.12
2022-12-17T01:54:16.422Z,-0.12
2022-12-17T01:57:02.468Z,-0.11
2022-12-17T01:59:59.784Z,-0.13
2022-12-17T02:02:45.228Z,-0.12
2022-12-17T02:05:30.471Z,-0.12
2022-12-17T02:08:42.600Z,-0.06
2022-12-17T02:11:45.035Z,-0.06
2022-12-17T02:15:00.552Z,-0.06
2022-12-17T02:17:52.868Z,-0.04
2022-12-17T02:20:43.974Z,-0.19
2022-12-17T02:23:42.275Z,-0.16
2022-12-17T02:26:32.058Z,-0.11
2022-12-17T02:29:18.979Z,-0.14
2022-12-17T02:32:04.882Z,-0.09
2022-12-17T02:34:50.083Z,-0.08
2022-12-17T02:37:35.721Z,-0.16
2022-12-17T02:40:20.844Z,-0.13
2022-12-17T02:43:07.603Z,-0.22
2022-12-17T02:45:53.245Z,-0.17
2022-12-17T02:48:38.922Z,-0.15
2022-12-17T02:51:24.678Z,-0.18
2022-12-17T02:54:12.275Z,-0.28
2022-12-17T02:56:57.446Z,-0.33
2022-12-17T02:59:42.633Z,-0.41
2022-12-17T03:02:28.179Z,-0.33
2022-12-17T03:05:42.916Z,-0.28
2022-12-17T03:08:18.916Z,-0.22
2022-12-17T03:11:04.301Z,-0.45
2022-12-17T03:13:49.474Z,-0.47
2022-12-17T03:16:37.897Z,-0.28
2022-12-17T03:19:23.322Z,-0.37
2022-12-17T03:22:08.835Z,-0.39
2022-12-17T03:24:53.987Z,-0.50
2022-12-17T03:27:39.443Z,-0.47
2022-12-17T03:30:25.071Z,-0.44
2022-12-17T03:33:10.334Z,-0.42
2022-12-17T03:35:55.939Z,-0.40
2022-12-17T03:38:41.294Z,-0.24
2022-12-17T03:41:26.229Z,-0.28
2022-12-17T03:44:11.628Z,-0.40
2022-12-17T03:46:56.595Z,-0.37
2022-12-17T03:49:41.516Z,-0.45
2022-12-17T03:52:26.947Z,-0.42
2022-12-17T03:55:12.141Z,-0.46
2022-12-17T03:57:57.266Z,-0.45
2022-12-17T04:00:42.111Z,-0.52
2022-12-17T04:03:27.671Z,-0.56
2022-12-17T04:06:12.986Z,-0.55
2022-12-17T04:08:58.027Z,-0.61
2022-12-17T04:11:43.472Z,-0.50
2022-12-17T04:14:28.540Z,-0.55
2022-12-17T04:17:13.809Z,-0.56
2022-12-17T04:19:59.232Z,-0.58
2022-12-17T04:22:44.815Z,-0.50
2022-12-17T04:25:30.074Z,-0.38
2022-12-17T04:28:15.685Z,-0.40
2022-12-17T04:31:01.073Z,-0.53
2022-12-17T04:33:46.461Z,-0.59
2022-12-17T04:36:31.815Z,-0.54
2022-12-17T04:39:16.653Z,-0.53
2022-12-17T04:42:01.898Z,-0.51
2022-12-17T04:44:47.264Z,-0.39
2022-12-17T04:47:32.483Z,-0.48
2022-12-17T04:50:17.861Z,-0.50
2022-12-17T04:53:03.365Z,-0.44
2022-12-17T04:55:49.014Z,-0.47
2022-12-17T04:58:34.327Z,-0.57
2022-12-17T05:01:19.940Z,-0.50
2022-12-17T05:04:04.894Z,-0.53
2022-12-17T05:06:50.414Z,-0.53
2022-12-17T05:09:35.874Z,-0.49
2022-12-17T05:12:21.332Z,-0.47
2022-12-17T05:15:06.653Z,-0.57
2022-12-17T05:17:51.881Z,-0.56
2022-12-17T05:20:37.249Z,-0.68
2022-12-17T05:23:23.972Z,-0.80
2022-12-17T05:26:14.423Z,-0.71
2022-12-17T05:28:59.266Z,-0.67
2022-12-17T05:31:44.276Z,-0.66
2022-12-17T05:34:29.404Z,-0.64
2022-12-17T05:37:14.573Z,-0.69
2022-12-17T05:39:59.536Z,-0.65
2022-12-17T05:42:44.271Z,-0.74
2022-12-17T05:45:29.421Z,-0.74
2022-12-17T05:48:17.500Z,-0.69
2022-12-17T05:51:07.421Z,-0.82
2022-12-17T05:53:52.814Z,-0.84
2022-12-17T05:56:38.096Z,-0.75
2022-12-17T05:59:23.392Z,-0.73
2022-12-17T06:02:08.616Z,-0.70
2022-12-17T06:04:57.455Z,-0.72
2022-12-17T06:07:45.525Z,-0.74
2022-12-17T06:10:30.427Z,-0.61
2022-12-17T06:13:16.391Z,-0.61
2022-12-17T06:16:01.832Z,-0.66
2022-12-17T06:18:46.847Z,-0.65
2022-12-17T06:21:31.765Z,-0.65
2022-12-17T06:24:21.117Z,-0.71
2022-12-17T06:27:05.957Z,-0.58
2022-12-17T06:29:51.228Z,-0.55
2022-12-17T06:32:36.438Z,-0.69
2022-12-17T06:35:21.983Z,-0.65
2022-12-17T06:38:06.814Z,-0.60
2022-12-17T06:40:51.817Z,-0.61
2022-12-17T06:43:37.970Z,-0.61
2022-12-17T06:46:23.611Z,-0.62
2022-12-17T06:49:08.823Z,-0.67
2022-12-17T06:51:54.197Z,-0.70
2022-12-17T06:54:39.345Z,-0.75
2022-12-17T06:57:24.940Z,-0.85
2022-12-17T07:00:10.862Z,-0.83
2022-12-17T07:03:00.300Z,-0.82
2022-12-17T07:05:46.244Z,-0.90
2022-12-17T07:08:31.815Z,-0.77
2022-12-17T07:11:20.987Z,-0.76
2022-12-17T07:14:06.265Z,-0.70
2022-12-17T07:16:51.254Z,-0.61
2022-12-17T07:19:36.102Z,-0.58
2022-12-17T07:22:21.085Z,-0.60
2022-12-17T07:25:06.087Z,-0.65
2022-12-17T07:27:50.908Z,-0.64
2022-12-17T07:30:40.894Z,-0.68
2022-12-17T07:33:28.610Z,-0.72
2022-12-17T07:36:15.085Z,-0.64
2022-12-17T07:39:00.169Z,-0.55
2022-12-17T07:41:45.087Z,-0.50
2022-12-17T07:44:29.892Z,-0.47
2022-12-17T07:47:15.347Z,-0.49
2022-12-17T07:50:00.991Z,-0.41
2022-12-17T07:52:46.421Z,-0.49
2022-12-17T07:55:31.809Z,-0.54
2022-12-17T07:58:18.918Z,-0.64
2022-12-17T08:01:04.441Z,-0.48
2022-12-17T08:03:50.155Z,-0.41
2022-12-17T08:06:35.855Z,-0.31
2022-12-17T08:09:21.068Z,-0.30
2022-12-17T08:12:06.258Z,-0.33
2022-12-17T08:14:51.759Z,-0.29
2022-12-17T08:17:37.329Z,-0.26
2022-12-17T08:20:23.246Z,-0.26
2022-12-17T08:23:08.855Z,-0.17
2022-12-17T08:25:54.061Z,-0.05
2022-12-17T08:28:50.447Z,0.11
2022-12-17T08:31:36.453Z,0.07
2022-12-17T08:34:22.195Z,0.15
2022-12-17T08:37:07.357Z,0.26
2022-12-17T08:39:52.617Z,0.15
2022-12-17T08:42:38.240Z,0.38
2022-12-17T08:45:24.248Z,0.16
2022-12-17T08:48:09.712Z,0.06
2022-12-17T08:50:54.887Z,0.10
2022-12-17T08:53:40.793Z,0.14
2022-12-17T08:56:26.517Z,0.22
2022-12-17T08:59:11.900Z,0.32
2022-12-17T09:01:57.414Z,0.14
2022-12-17T09:04:42.897Z,0.16
2022-12-17T09:07:28.287Z,0.29
2022-12-17T09:10:13.987Z,0.42
2022-12-17T09:13:04.358Z,0.26
2022-12-17T09:15:50.267Z,0.37
2022-12-17T09:18:39.706Z,0.24
2022-12-17T09:21:26.240Z,0.32
2022-12-17T09:24:11.396Z,0.22
2022-12-17T09:26:56.491Z,0.25
2022-12-17T09:29:41.887Z,0.12
2022-12-17T09:32:27.168Z,0.19
2022-12-17T09:35:12.398Z,0.25
2022-12-17T09:37:57.607Z,0.22
2022-12-17T09:40:43.586Z,0.40
2022-12-17T09:44:10.086Z,0.28
2022-12-17T09:47:03.446Z,0.30
2022-12-17T09:49:48.915Z,0.30
2022-12-17T09:52:45.198Z,-0.02
2022-12-17T09:55:39.138Z,-0.03
2022-12-17T09:58:25.431Z,0.16
2022-12-17T10:01:11.603Z,0.59
2022-12-17T10:04:04.820Z,1.00
2022-12-17T10:06:50.587Z,0.82
2022-12-17T10:09:37.455Z,0.74
2022-12-17T10:12:35.875Z,0.90
2022-12-17T10:15:21.171Z,0.98
2022-12-17T10:18:06.345Z,1.27
2022-12-17T10:20:58.807Z,1.53
2022-12-17T10:23:49.041Z,1.16
2022-12-17T10:26:43.129Z,0.90
2022-12-17T10:29:45.541Z,1.03
2022-12-17T10:32:35.892Z,0.75
2022-12-17T10:35:36.177Z,0.69
2022-12-17T10:38:32.546Z,0.74
2022-12-17T10:41:17.640Z,0.71
2022-12-17T10:44:03.329Z,0.63
2022-12-17T10:46:50.385Z,0.28
2022-12-17T10:49:37.847Z,0.32
2022-12-17T10:52:37.969Z,0.41
2022-12-17T10:55:24.511Z,0.31
2022-12-17T10:58:11.242Z,0.25
2022-12-17T11:00:58.298Z,0.26
2022-12-17T11:03:47.537Z,0.26
2022-12-17T11:06:42.219Z,0.17
2022-12-17T11:09:51.477Z,0.19
2022-12-17T11:12:38.824Z,0.18
2022-12-17T11:16:05.049Z,-0.06
2022-12-17T11:19:13.914Z,0.10
2022-12-17T11:22:02.893Z,0.30
2022-12-17T11:24:53.725Z,0.50
2022-12-17T11:27:42.338Z,0.48
2022-12-17T11:30:34.556Z,0.55
2022-12-17T11:33:28.611Z,0.51
2022-12-17T11:36:35.177Z,0.25
2022-12-17T11:39:45.771Z,0.36
2022-12-17T11:42:37.694Z,0.16
2022-12-17T11:45:49.193Z,0.29
2022-12-17T11:48:49.411Z,0.38
2022-12-17T11:51:47.647Z,0.12
2022-12-17T11:54:44.526Z,0.25
2022-12-17T11:57:41.167Z,0.53
2022-12-17T12:00:35.990Z,0.46
2022-12-17T12:03:27.431Z,0.46
2022-12-17T12:06:15.150Z,0.65
2022-12-17T12:09:27.291Z,0.38
2022-12-17T12:12:32.198Z,0.29
2022-12-17T12:15:40.394Z,0.70
2022-12-17T12:18:43.712Z,0.51
2022-12-17T12:21:54.672Z,0.37
2022-12-17T12:25:16.920Z,0.43
2022-12-17T12:28:29.968Z,0.41
2022-12-17T12:31:34.256Z,0.44
2022-12-17T12:34:21.876Z,0.41
2022-12-17T12:37:08.043Z,0.37
2022-12-17T12:39:59.240Z,0.30
2022-12-17T12:43:07.352Z,0.36
2022-12-17T12:46:19.015Z,0.55
2022-12-17T12:49:15.967Z,0.41
2022-12-17T12:52:01.646Z,0.46
2022-12-17T12:55:05.382Z,0.55
2022-12-17T12:57:58.227Z,0.46
2022-12-17T13:00:49.580Z,0.33
2022-12-17T13:03:41.783Z,0.40
2022-12-17T13:06:08.806Z,0.36
2022-12-17T13:08:36.197Z,0.42
2022-12-17T13:11:38.928Z,0.31
2022-12-17T13:14:19.847Z,0.34
2022-12-17T13:16:53.840Z,0.47
2022-12-17T13:19:31.977Z,0.27
2022-12-17T13:22:17.771Z,0.25
2022-12-17T13:24:52.784Z,0.19
2022-12-17T13:27:34.928Z,0.03
2022-12-17T13:30:29.436Z,-0.26
2022-12-17T13:33:02.286Z,-0.22
2022-12-17T13:35:41.308Z,-0.20
2022-12-17T13:38:43.677Z,-0.06
2022-12-17T13:41:13.152Z,-0.06
2022-12-17T13:43:49.017Z,-0.14
2022-12-17T13:46:26.059Z,-0.17
2022-12-17T13:48:54.703Z,-0.32
2022-12-17T13:51:22.435Z,-0.60
2022-12-17T13:54:00.687Z,-0.53
2022-12-17T13:56:36.169Z,-0.68
2022-12-17T13:59:09.089Z,-0.45
2022-12-17T14:01:49.228Z,-0.65
2022-12-17T14:04:27.433Z,-0.82
2022-12-17T14:06:59.397Z,-0.69
2022-12-17T14:09:39.489Z,-0.62
2022-12-17T14:12:22.346Z,-0.49
2022-12-17T14:14:56.020Z,-0.68
2022-12-17T14:17:35.479Z,-0.74
2022-12-17T14:20:08.407Z,-0.78
2022-12-17T14:22:50.786Z,-0.89
2022-12-17T14:25:20.560Z,-0.91
2022-12-17T14:27:57.431Z,-1.12
2022-12-17T14:30:25.804Z,-1.38
2022-12-17T14:32:52.563Z,-1.34
2022-12-17T14:35:31.159Z,-1.53
2022-12-17T14:37:58.000Z,-1.66
2022-12-17T14:40:25.761Z,-1.76
2022-12-17T14:42:57.797Z,-1.76
2022-12-17T14:45:26.108Z,-2.00
2022-12-17T14:48:00.956Z,-2.03
2022-12-17T14:50:33.421Z,-2.07
2022-12-17T14:53:05.416Z,-2.19
2022-12-17T14:55:39.183Z,-2.07
2022-12-17T14:58:11.966Z,-2.06
2022-12-17T15:00:41.067Z,-2.31
2022-12-17T15:03:19.125Z,-2.39
2022-12-17T15:05:51.436Z,-2.56
2022-12-17T15:08:18.488Z,-2.68
2022-12-17T15:10:45.194Z,-2.54
2022-12-17T15:13:12.162Z,-2.54
2022-12-17T15:15:38.797Z,-2.39
2022-12-17T15:18:05.557Z,-2.45
2022-12-17T15:20:32.249Z,-2.47
2022-12-17T15:22:58.995Z,-2.60
2022-12-17T15:25:25.689Z,-2.65
2022-12-17T15:27:52.543Z,-3.00
2022-12-17T15:30:19.839Z,-3.11
2022-12-17T15:32:47.529Z,-3.04
2022-12-17T15:35:14.668Z,-3.24
2022-12-17T15:37:41.330Z,-3.22
2022-12-17T15:40:10.868Z,-3.10
2022-12-17T15:42:57.443Z,-3.14
2022-12-17T15:45:25.928Z,-2.97
2022-12-17T15:47:52.678Z,-3.08
2022-12-17T15:50:19.609Z,-3.00
2022-12-17T15:52:46.368Z,-3.19
2022-12-17T15:55:13.310Z,-3.19
2022-12-17T15:57:40.026Z,-3.24
2022-12-17T16:00:07.441Z,-3.28
2022-12-17T16:02:34.376Z,-3.19
2022-12-17T16:05:01.298Z,-3.07
2022-12-17T16:07:28.099Z,-3.02
2022-12-17T16:09:55.262Z,-3.09
2022-12-17T16:12:23.848Z,-3.17
2022-12-17T16:14:50.638Z,-3.24
2022-12-17T16:17:17.357Z,-3.38
2022-12-17T16:19:44.067Z,-3.30
2022-12-17T16:22:10.712Z,-3.35
2022-12-17T16:24:37.438Z,-3.44
2022-12-17T16:27:04.960Z,-3.61
2022-12-17T16:29:31.766Z,-3.64
2022-12-17T16:31:59.917Z,-3.84
2022-12-17T16:34:26.698Z,-3.77
2022-12-17T16:36:53.408Z,-3.75
2022-12-17T16:39:20.308Z,-3.71
2022-12-17T16:41:47.139Z,-3.68
2022-12-17T16:44:13.806Z,-3.67
2022-12-17T16:46:42.452Z,-3.75
2022-12-17T16:49:12.737Z,-3.75
2022-12-17T16:51:39.927Z,-3.78
2022-12-17T16:54:09.240Z,-3.75
2022-12-17T16:56:40.124Z,-3.87
2022-12-17T16:59:08.548Z,-3.82
2022-12-17T17:01:36.865Z,-4.00
2022-12-17T17:04:05.615Z,-4.02
2022-12-17T17:06:34.010Z,-3.98
2022-12-17T17:09:06.335Z,-3.86
2022-12-17T17:11:33.058Z,-3.95
2022-12-17T17:14:00.008Z,-3.96
2022-12-17T17:16:27.227Z,-4.00
2022-12-17T17:18:54.257Z,-4.07
2022-12-17T17:21:21.718Z,-4.17
2022-12-17T17:23:50.399Z,-4.15
2022-12-17T17:26:17.587Z,-4.20
2022-12-17T17:28:45.696Z,-4.12
2022-12-17T17:31:13.816Z,-4.09
2022-12-17T17:33:46.751Z,-4.12
2022-12-17T17:36:25.539Z,-4.09
2022-12-17T17:38:56.207Z,-4.13
2022-12-17T17:41:25.490Z,-4.23
2022-12-17T17:44:04.209Z,-4.20
2022-12-17T17:46:31.773Z,-4.34
2022-12-17T17:49:00.086Z,-4.38
2022-12-17T17:52:07.229Z,-4.57
2022-12-17T17:54:16.595Z,-4.72
2022-12-17T17:56:43.737Z,-4.77
2022-12-17T17:59:16.046Z,-4.85
2022-12-17T18:01:45.255Z,-4.92
2022-12-17T18:04:13.906Z,-5.05
2022-12-17T18:06:57.441Z,-4.96
2022-12-17T18:09:29.069Z,-4.86
2022-12-17T18:11:55.729Z,-4.74
2022-12-17T18:14:22.568Z,-4.72
2022-12-17T18:16:49.251Z,-4.73
2022-12-17T18:19:20.596Z,-5.05
2022-12-17T18:21:48.008Z,-5.01
2022-12-17T18:24:22.867Z,-5.27
2022-12-17T18:26:51.015Z,-5.14
2022-12-17T18:29:23.328Z,-5.22
2022-12-17T18:31:52.118Z,-5.28
2022-12-17T18:34:21.270Z,-5.26
2022-12-17T18:36:48.814Z,-5.13
2022-12-17T18:39:19.008Z,-5.22
2022-12-17T18:42:05.414Z,-5.11
2022-12-17T18:44:34.160Z,-5.13
2022-12-17T18:47:00.979Z,-5.30
2022-12-17T18:49:27.977Z,-5.40
2022-12-17T19:00:32.144Z,-5.34
2022-12-17T19:02:58.917Z,-5.41
2022-12-17T19:05:25.699Z,-5.63
2022-12-17T19:07:52.367Z,-5.88
2022-12-17T19:10:19.058Z,-5.66
2022-12-17T19:12:45.767Z,-5.91
2022-12-17T19:15:12.507Z,-5.73
2022-12-17T19:17:39.325Z,-5.71
2022-12-17T19:20:06.538Z,-5.96
2022-12-17T19:22:33.198Z,-5.80
2022-12-17T19:24:59.918Z,-5.76
2022-12-17T19:27:26.606Z,-5.70
2022-12-17T19:29:55.082Z,-5.72
2022-12-17T19:32:22.137Z,-5.75
2022-12-17T19:34:48.931Z,-5.66
2022-12-17T19:37:16.105Z,-5.80
2022-12-17T19:39:42.849Z,-5.89
2022-12-17T19:42:24.974Z,-5.87
2022-12-17T19:44:53.198Z,-5.86
2022-12-17T19:47:19.988Z,-6.04
2022-12-17T19:49:46.659Z,-6.09
2022-12-17T19:52:13.389Z,-6.03
2022-12-17T19:54:40.088Z,-6.04
2022-12-17T19:57:07.085Z,-6.00
2022-12-17T19:59:34.200Z,-6.07
2022-12-17T20:02:03.820Z,-6.01
2022-12-17T20:04:31.078Z,-6.19
2022-12-17T20:06:58.901Z,-5.97
2022-12-17T20:09:25.568Z,-5.92
2022-12-17T20:11:52.527Z,-5.87
2022-12-17T20:14:26.628Z,-5.69
2022-12-17T20:16:56.785Z,-5.76
2022-12-17T20:19:25.348Z,-5.61
2022-12-17T20:21:52.897Z,-5.66
2022-12-17T20:24:20.241Z,-5.59
2022-12-17T20:26:49.944Z,-5.46
2022-12-17T20:29:17.233Z,-5.53
2022-12-17T20:31:49.396Z,-5.54
2022-12-17T20:34:18.218Z,-5.52
2022-12-17T20:36:44.925Z,-5.66
2022-12-17T20:39:12.219Z,-5.46
2022-12-17T20:41:40.270Z,-5.40
2022-12-17T20:44:11.395Z,-5.37
2022-12-17T20:46:38.217Z,-5.39
2022-12-17T20:49:05.707Z,-5.46
2022-12-17T20:51:32.866Z,-5.46
2022-12-17T20:54:00.740Z,-5.50
2022-12-17T20:56:30.220Z,-5.52
2022-12-17T20:59:02.972Z,-5.49
2022-12-17T21:01:31.323Z,-5.46
2022-12-17T21:03:58.648Z,-5.60
2022-12-17T21:06:28.021Z,-5.70
2022-12-17T21:08:55.928Z,-5.80
2022-12-17T21:11:27.795Z,-5.92
2022-12-17T21:13:55.200Z,-5.99
2022-12-17T21:16:30.156Z,-5.93
2022-12-17T21:18:58.157Z,-6.05
2022-12-17T21:21:27.926Z,-6.16
2022-12-17T21:23:56.360Z,-6.34
2022-12-17T21:26:31.766Z,-6.37
2022-12-17T21:28:58.919Z,-6.40
2022-12-17T21:31:31.179Z,-6.79
2022-12-17T21:34:00.304Z,-6.77
2022-12-17T21:36:28.786Z,-6.84
2022-12-17T21:38:55.432Z,-6.80
2022-12-17T21:41:26.302Z,-6.84
2022-12-17T21:43:57.645Z,-6.84
2022-12-17T21:46:27.135Z,-6.75
2022-12-17T21:48:54.458Z,-6.94
2022-12-17T21:51:21.697Z,-6.90
2022-12-17T21:53:53.180Z,-6.98
2022-12-17T21:56:19.983Z,-7.05
2022-12-17T21:58:47.444Z,-6.82
2022-12-17T22:01:18.487Z,-6.90
2022-12-17T22:03:53.033Z,-6.78
2022-12-17T22:06:24.009Z,-6.80
2022-12-17T22:08:54.108Z,-6.93
2022-12-17T22:11:27.104Z,-6.97
2022-12-17T22:14:07.375Z,-7.06
2022-12-17T22:16:42.541Z,-7.11
2022-12-17T22:19:25.416Z,-7.26
2022-12-17T22:21:54.330Z,-7.58
2022-12-17T22:24:25.009Z,-7.58
2022-12-17T22:26:51.679Z,-7.71
2022-12-17T22:29:41.320Z,-7.62
2022-12-17T22:32:27.899Z,-7.39
2022-12-17T22:35:23.848Z,-7.27
2022-12-17T22:40:44.677Z,-7.24
2022-12-17T22:44:32.241Z,-7.48
2022-12-17T22:44:45.404Z,-7.76
2022-12-17T22:46:19.867Z,-7.83
2022-12-17T22:48:46.898Z,-8.02
2022-12-17T22:51:16.678Z,-7.88
2022-12-17T22:53:50.940Z,-7.85
2022-12-17T22:56:34.782Z,-7.70
2022-12-17T22:59:05.917Z,-7.66
2022-12-17T23:01:33.103Z,-7.78
2022-12-17T23:04:01.444Z,-7.97
2022-12-17T23:06:28.327Z,-7.96
2022-12-17T23:08:55.013Z,-7.99
2022-12-17T23:11:23.392Z,-7.89
2022-12-17T23:13:50.637Z,-8.04
2022-12-17T23:16:17.882Z,-7.99
2022-12-17T23:18:45.666Z,-8.02
2022-12-17T23:21:24.127Z,-7.89
2022-12-17T23:23:53.172Z,-7.83
2022-12-17T23:26:27.465Z,-8.02
2022-12-17T23:28:58.616Z,-7.99
2022-12-17T23:31:27.122Z,-8.10
2022-12-17T23:33:53.786Z,-8.14
2022-12-17T23:36:23.289Z,-8.19
2022-12-17T23:38:50.397Z,-7.97
2022-12-17T23:41:20.120Z,-8.06
2022-12-17T23:43:47.828Z,-8.03
2022-12-17T23:46:15.036Z,-8.14
2022-12-17T23:48:45.566Z,-8.11
2022-12-17T23:51:14.342Z,-8.07
2022-12-17T23:53:42.245Z,-8.19
2022-12-17T23:56:23.582Z,-8.26
2022-12-17T23:58:53.533Z,-8.17
